Time;durP1;ratioP1;P1;durP2;ratioP2;P2;SDS_P1;SDS_P2;PMS_P1;PMS_P2;Temp;Humidity;BMP_temperature;BMP_pressure;BME280_temperature;BME280_humidity;BME280_pressure;Samples;Min_cycle;Max_cycle;Signal;HPM_P1;HPM_P2
2021/03/16 00:01:08;;;;;;;20.97;2.83;;;;;;;;;;6346892;22;20011;-79
2021/03/16 00:03:34;;;;;;;33.33;4.40;;;;;;;;;;6348355;22;20497;-79
2021/03/16 00:06:01;;;;;;;31.77;3.03;;;;;;;;;;6348786;22;20007;-79
2021/03/16 00:08:27;;;;;;;32.60;4.17;;;;;;;;;;6374981;22;20321;-79
2021/03/16 00:10:53;;;;;;;32.57;3.80;;;;;;;;;;6383453;22;20014;-78
2021/03/16 00:13:19;;;;;;;25.03;3.30;;;;;;;;;;6387153;22;20003;-79
2021/03/16 00:15:45;;;;;;;28.77;3.00;;;;;;;;;;6347273;22;20007;-79
2021/03/16 00:18:15;;;;;;;33.73;3.80;;;;;;;;;;6373844;22;20014;-79
2021/03/16 00:20:45;;;;;;;26.17;3.73;;;;;;;;;;6374977;22;20002;-79
2021/03/16 00:23:12;;;;;;;29.93;3.60;;;;;;;;;;6376151;22;20007;-78
2021/03/16 00:25:39;;;;;;;26.87;3.37;;;;;;;;;;6375401;22;20329;-78
2021/03/16 00:28:06;;;;;;;21.60;2.67;;;;;;;;;;6374861;22;20002;-78
2021/03/16 00:30:32;;;;;;;33.53;4.20;;;;;;;;;;6378712;22;20015;-79
2021/03/16 00:32:58;;;;;;;23.53;3.20;;;;;;;;;;6355243;22;20018;-78
2021/03/16 00:35:24;;;;;;;34.20;4.43;;;;;;;;;;6385186;22;20013;-78
2021/03/16 00:37:50;;;;;;;30.60;4.23;;;;;;;;;;6359936;22;20036;-79
2021/03/16 00:40:16;;;;;;;29.53;4.77;;;;;;;;;;6388767;22;20007;-78
2021/03/16 00:42:43;;;;;;;39.07;5.17;;;;;;;;;;6389904;22;20002;-78
2021/03/16 00:45:10;;;;;;;41.77;6.07;;;;;;;;;;6362868;22;19999;-79
2021/03/16 00:47:36;;;;;;;20.80;2.80;;;;;;;;;;6389995;22;20003;-79
2021/03/16 00:50:02;;;;;;;43.37;4.37;;;;;;;;;;6362518;22;20045;-79
2021/03/16 00:52:29;;;;;;;43.87;4.33;;;;;;;;;;6386798;22;20027;-79
2021/03/16 00:54:54;;;;;;;32.57;3.30;;;;;;;;;;6361509;22;20015;-78
2021/03/16 00:57:20;;;;;;;23.60;3.50;;;;;;;;;;6374631;22;20074;-78
2021/03/16 00:59:46;;;;;;;35.33;4.73;;;;;;;;;;6347506;22;20413;-78
2021/03/16 01:02:12;;;;;;;30.03;4.07;;;;;;;;;;6356003;22;20075;-78
2021/03/16 01:04:38;;;;;;;32.80;4.00;;;;;;;;;;6348257;22;20018;-78
2021/03/16 01:07:05;;;;;;;25.20;3.17;;;;;;;;;;6370610;22;20324;-78
2021/03/16 01:09:31;;;;;;;16.87;2.73;;;;;;;;;;6347296;22;20006;-78
2021/03/16 01:11:57;;;;;;;26.17;4.10;;;;;;;;;;6347025;22;20007;-78
2021/03/16 01:14:23;;;;;;;30.70;3.57;;;;;;;;;;6374190;22;20027;-78
2021/03/16 01:16:49;;;;;;;29.00;4.60;;;;;;;;;;6375546;22;20015;-78
2021/03/16 01:19:15;;;;;;;29.00;3.73;;;;;;;;;;6351423;22;20056;-78
2021/03/16 01:21:41;;;;;;;28.87;3.60;;;;;;;;;;6384922;22;19994;-79
2021/03/16 01:24:07;;;;;;;35.83;4.63;;;;;;;;;;6363713;22;20002;-79
2021/03/16 01:26:33;;;;;;;29.30;3.57;;;;;;;;;;6348845;22;20003;-78
2021/03/16 01:29:01;;;;;;;27.93;3.80;;;;;;;;;;6348568;22;20007;-78
2021/03/16 01:31:27;;;;;;;20.97;3.10;;;;;;;;;;6371309;22;20015;-78
2021/03/16 01:33:53;;;;;;;32.67;4.23;;;;;;;;;;6353236;22;20052;-78
2021/03/16 01:36:19;;;;;;;37.67;4.60;;;;;;;;;;6347950;22;20323;-78
2021/03/16 01:38:45;;;;;;;25.03;3.10;;;;;;;;;;6346527;22;20034;-78
2021/03/16 01:41:11;;;;;;;37.63;5.03;;;;;;;;;;6346067;22;20037;-79
2021/03/16 01:43:37;;;;;;;29.63;3.87;;;;;;;;;;6345224;22;20060;-78
2021/03/16 01:46:06;;;;;;;50.33;4.40;;;;;;;;;;6345703;22;20332;-78
2021/03/16 01:48:33;;;;;;;34.47;4.50;;;;;;;;;;6347081;22;20104;-78
2021/03/16 01:51:04;;;;;;;40.27;4.23;;;;;;;;;;6373602;22;20015;-79
2021/03/16 01:53:30;;;;;;;36.37;4.90;;;;;;;;;;6373687;22;20056;-78
2021/03/16 01:55:57;;;;;;;30.47;4.03;;;;;;;;;;6348203;22;20038;-78
2021/03/16 01:58:23;;;;;;;35.07;5.37;;;;;;;;;;6384260;22;20049;-79
2021/03/16 02:00:50;;;;;;;32.00;4.10;;;;;;;;;;6392725;22;20038;-79
2021/03/16 02:03:17;;;;;;;24.77;3.43;;;;;;;;;;6379484;22;20026;-78
2021/03/16 02:05:44;;;;;;;34.60;4.50;;;;;;;;;;6348047;22;20302;-78
2021/03/16 02:08:28;;;;;;;32.17;5.37;;;;;;;;;;6371891;22;20014;-78
2021/03/16 02:10:56;;;;;;;36.67;4.55;;;;;;;;;;6372788;22;20003;-77
2021/03/16 02:13:40;;;;;;;36.53;4.07;;;;;;;;;;6374006;22;20041;-78
2021/03/16 02:16:17;;;;;;;35.40;4.90;;;;;;;;;;6375401;22;20064;-78
2021/03/16 02:18:52;;;;;;;29.53;3.73;;;;;;;;;;6378811;22;20011;-78
2021/03/16 02:21:23;;;;;;;34.57;4.67;;;;;;;;;;6392766;22;20053;-79
2021/03/16 02:24:10;;;;;;;41.93;4.20;;;;;;;;;;6379146;22;20003;-78
2021/03/16 02:26:39;;;;;;;21.80;3.27;;;;;;;;;;6375390;22;20007;-78
2021/03/16 02:29:10;;;;;;;31.53;3.53;;;;;;;;;;6350937;22;20003;-79
2021/03/16 02:31:38;;;;;;;24.23;3.80;;;;;;;;;;6350004;22;20002;-78
2021/03/16 02:34:04;;;;;;;37.30;4.47;;;;;;;;;;6386068;22;19999;-79
2021/03/16 02:36:31;;;;;;;39.07;4.53;;;;;;;;;;6381140;22;20013;-79
2021/03/16 02:38:58;;;;;;;23.53;3.50;;;;;;;;;;6371100;22;20007;-78
2021/03/16 02:41:25;;;;;;;33.23;4.63;;;;;;;;;;6372076;22;20029;-78
2021/03/16 02:43:52;;;;;;;30.00;3.87;;;;;;;;;;6373062;22;20010;-79
2021/03/16 02:46:18;;;;;;;29.93;3.07;;;;;;;;;;6352657;22;20037;-79
2021/03/16 02:48:46;;;;;;;30.10;4.60;;;;;;;;;;6348916;22;20015;-79
2021/03/16 02:51:13;;;;;;;37.47;4.00;;;;;;;;;;6373155;22;20019;-78
2021/03/16 02:53:40;;;;;;;31.73;4.60;;;;;;;;;;6345415;22;20018;-78
2021/03/16 02:56:07;;;;;;;53.10;5.47;;;;;;;;;;6349674;22;20003;-79
2021/03/16 02:58:33;;;;;;;38.37;5.93;;;;;;;;;;6348590;22;20018;-79
2021/03/16 03:01:00;;;;;;;40.37;6.07;;;;;;;;;;6346768;22;20404;-79
2021/03/16 03:03:26;;;;;;;39.20;4.80;;;;;;;;;;6370511;22;20007;-79
2021/03/16 03:05:53;;;;;;;42.57;6.27;;;;;;;;;;6372071;22;20014;-79
2021/03/16 03:08:20;;;;;;;33.57;4.73;;;;;;;;;;6370036;22;20007;-79
2021/03/16 03:10:46;;;;;;;40.73;5.07;;;;;;;;;;6371026;22;20011;-79
2021/03/16 03:13:13;;;;;;;43.53;5.93;;;;;;;;;;6346075;22;20006;-79
2021/03/16 03:15:39;;;;;;;29.17;4.07;;;;;;;;;;6347215;22;20015;-79
2021/03/16 03:18:05;;;;;;;45.83;5.07;;;;;;;;;;6348315;22;20019;-79
2021/03/16 03:20:33;;;;;;;39.97;5.07;;;;;;;;;;6372515;22;20056;-79
2021/03/16 03:23:05;;;;;;;41.20;5.33;;;;;;;;;;6373805;22;20003;-79
2021/03/16 03:25:35;;;;;;;49.90;5.23;;;;;;;;;;6347406;22;20065;-80
2021/03/16 03:28:02;;;;;;;48.43;5.17;;;;;;;;;;6348580;22;19995;-79
2021/03/16 03:30:29;;;;;;;36.37;4.47;;;;;;;;;;6373169;22;20022;-79
2021/03/16 03:32:59;;;;;;;33.50;5.03;;;;;;;;;;6347399;22;20448;-79
2021/03/16 03:35:28;;;;;;;26.77;2.80;;;;;;;;;;6374172;22;20007;-79
2021/03/16 03:37:54;;;;;;;36.23;6.53;;;;;;;;;;6373887;22;20002;-80
2021/03/16 03:40:21;;;;;;;35.83;5.43;;;;;;;;;;6374624;22;20007;-79
2021/03/16 03:42:47;;;;;;;39.33;4.60;;;;;;;;;;6350344;22;20055;-79
2021/03/16 03:45:14;;;;;;;42.47;4.57;;;;;;;;;;6359922;22;20011;-79
2021/03/16 03:47:42;;;;;;;31.63;2.83;;;;;;;;;;6355805;22;20014;-79
2021/03/16 03:50:09;;;;;;;35.27;4.37;;;;;;;;;;6372922;22;20080;-79
2021/03/16 03:52:35;;;;;;;39.27;4.37;;;;;;;;;;6347624;22;20026;-79
2021/03/16 03:55:02;;;;;;;31.27;4.80;;;;;;;;;;6374279;22;20014;-79
2021/03/16 03:57:28;;;;;;;32.90;4.33;;;;;;;;;;6351470;22;20051;-79
2021/03/16 03:59:55;;;;;;;40.07;4.40;;;;;;;;;;6376049;22;20010;-79
2021/03/16 04:02:21;;;;;;;30.47;5.00;;;;;;;;;;6359349;22;20084;-79
2021/03/16 04:04:47;;;;;;;31.87;4.63;;;;;;;;;;6364531;22;20025;-80
2021/03/16 04:07:15;;;;;;;38.23;5.07;;;;;;;;;;6363751;22;20007;-79
2021/03/16 04:09:41;;;;;;;32.83;4.00;;;;;;;;;;6361141;22;20022;-79
2021/03/16 04:12:07;;;;;;;42.10;4.77;;;;;;;;;;6373044;22;20011;-79
2021/03/16 04:14:34;;;;;;;29.93;3.53;;;;;;;;;;6346589;22;20025;-79
2021/03/16 04:17:00;;;;;;;42.53;4.37;;;;;;;;;;6347708;22;20011;-79
2021/03/16 04:19:27;;;;;;;44.73;4.40;;;;;;;;;;6379438;22;20014;-78
2021/03/16 04:21:53;;;;;;;44.83;6.57;;;;;;;;;;6389311;22;20007;-79
2021/03/16 04:24:19;;;;;;;38.83;3.53;;;;;;;;;;6348876;22;20432;-79
2021/03/16 04:26:45;;;;;;;43.17;5.83;;;;;;;;;;6353068;22;20011;-79
2021/03/16 04:29:11;;;;;;;31.77;4.50;;;;;;;;;;6386337;22;20432;-79
2021/03/16 04:31:37;;;;;;;39.57;5.07;;;;;;;;;;6357944;22;20030;-78
2021/03/16 04:34:03;;;;;;;33.37;4.37;;;;;;;;;;6375321;22;20013;-79
2021/03/16 04:36:29;;;;;;;47.40;4.90;;;;;;;;;;6351752;22;20451;-79
2021/03/16 04:38:55;;;;;;;38.07;4.43;;;;;;;;;;6377599;22;20025;-79
2021/03/16 04:41:21;;;;;;;42.20;4.90;;;;;;;;;;6358283;22;20051;-79
2021/03/16 04:43:47;;;;;;;35.00;4.13;;;;;;;;;;6354734;22;20302;-79
2021/03/16 04:46:13;;;;;;;31.97;3.83;;;;;;;;;;6355178;22;20041;-79
2021/03/16 04:48:40;;;;;;;29.30;4.47;;;;;;;;;;6366921;22;19987;-79
2021/03/16 04:51:06;;;;;;;38.50;5.50;;;;;;;;;;6379491;22;20015;-78
2021/03/16 04:53:32;;;;;;;36.63;3.77;;;;;;;;;;6378019;22;20424;-78
2021/03/16 04:55:58;;;;;;;40.70;4.23;;;;;;;;;;6363014;22;20003;-79
2021/03/16 04:58:24;;;;;;;32.53;3.90;;;;;;;;;;6366190;22;20013;-79
2021/03/16 05:00:50;;;;;;;29.73;4.17;;;;;;;;;;6386032;22;20034;-79
2021/03/16 05:03:16;;;;;;;29.10;3.50;;;;;;;;;;6385044;22;20010;-79
2021/03/16 05:05:42;;;;;;;40.83;4.37;;;;;;;;;;6350626;22;19998;-79
2021/03/16 05:08:08;;;;;;;29.90;3.93;;;;;;;;;;6350504;22;20028;-79
2021/03/16 05:10:34;;;;;;;38.50;5.33;;;;;;;;;;6351085;22;20005;-79
2021/03/16 05:13:00;;;;;;;43.63;5.13;;;;;;;;;;6350367;22;20378;-79
2021/03/16 05:15:26;;;;;;;29.77;4.60;;;;;;;;;;6349431;22;20003;-79
2021/03/16 05:17:52;;;;;;;30.30;5.20;;;;;;;;;;6348334;22;20102;-79
2021/03/16 05:20:18;;;;;;;41.87;4.23;;;;;;;;;;6348182;22;20037;-79
2021/03/16 05:22:44;;;;;;;36.63;4.57;;;;;;;;;;6374049;22;20031;-79
2021/03/16 05:25:10;;;;;;;31.73;4.73;;;;;;;;;;6345609;22;20015;-79
2021/03/16 05:27:36;;;;;;;30.33;3.23;;;;;;;;;;6349921;22;20011;-78
2021/03/16 05:30:03;;;;;;;35.43;4.60;;;;;;;;;;6348813;22;20328;-79
2021/03/16 05:32:29;;;;;;;35.83;3.80;;;;;;;;;;6372196;22;20082;-79
2021/03/16 05:34:55;;;;;;;29.43;3.93;;;;;;;;;;6372180;22;20018;-78
2021/03/16 05:37:21;;;;;;;28.53;4.10;;;;;;;;;;6372660;22;20022;-79
2021/03/16 05:39:47;;;;;;;41.40;5.50;;;;;;;;;;6375939;22;20018;-79
2021/03/16 05:42:16;;;;;;;31.57;5.03;;;;;;;;;;6375580;22;20068;-79
2021/03/16 05:44:43;;;;;;;32.40;3.63;;;;;;;;;;6370700;22;20007;-79
2021/03/16 05:47:10;;;;;;;40.77;5.73;;;;;;;;;;6346016;22;20003;-79
2021/03/16 05:49:37;;;;;;;35.57;4.50;;;;;;;;;;6374425;22;20039;-79
2021/03/16 05:52:03;;;;;;;32.27;4.20;;;;;;;;;;6347579;22;20031;-80
2021/03/16 05:54:29;;;;;;;37.77;3.80;;;;;;;;;;6349088;22;20018;-79
2021/03/16 05:56:55;;;;;;;36.80;3.90;;;;;;;;;;6351513;22;20022;-79
2021/03/16 05:59:21;;;;;;;46.50;4.10;;;;;;;;;;6349928;22;20007;-79
2021/03/16 06:01:47;;;;;;;37.87;5.50;;;;;;;;;;6379358;22;20003;-78
2021/03/16 06:04:13;;;;;;;32.03;4.23;;;;;;;;;;6353263;22;19999;-79
2021/03/16 06:06:39;;;;;;;31.03;3.87;;;;;;;;;;6361418;22;20034;-79
2021/03/16 06:09:06;;;;;;;34.60;4.20;;;;;;;;;;6361746;22;20007;-79
2021/03/16 06:11:33;;;;;;;35.80;4.33;;;;;;;;;;6356336;22;20007;-78
2021/03/16 06:14:00;;;;;;;33.93;3.63;;;;;;;;;;6385767;22;20007;-78
2021/03/16 06:16:26;;;;;;;45.07;6.93;;;;;;;;;;6351556;22;20053;-79
2021/03/16 06:18:52;;;;;;;45.47;4.67;;;;;;;;;;6381589;22;20418;-78
2021/03/16 06:21:22;;;;;;;42.57;4.57;;;;;;;;;;6358410;22;20078;-79
2021/03/16 06:23:52;;;;;;;21.30;3.37;;;;;;;;;;6359768;22;20001;-78
2021/03/16 06:26:19;;;;;;;48.97;4.97;;;;;;;;;;6380435;22;20018;-78
2021/03/16 06:28:45;;;;;;;35.33;4.97;;;;;;;;;;6347402;22;20022;-78
2021/03/16 06:31:20;;;;;;;41.27;4.93;;;;;;;;;;6349013;22;20017;-78
2021/03/16 06:33:49;;;;;;;;;;;;;;;;;;6348928;22;20322;-79
2021/03/16 06:36:15;;;;;;;41.47;4.97;;;;;;;;;;6375736;22;20028;-79
2021/03/16 06:38:41;;;;;;;29.30;3.70;;;;;;;;;;6350508;22;20007;-78
2021/03/16 06:41:18;;;;;;;39.70;4.47;;;;;;;;;;6356334;22;20007;-79
2021/03/16 06:43:55;;;;;;;40.73;5.27;;;;;;;;;;6390165;22;20018;-78
2021/03/16 06:46:31;;;;;;;31.83;5.13;;;;;;;;;;6379634;22;20013;-78
2021/03/16 06:48:57;;;;;;;32.40;3.87;;;;;;;;;;6383227;22;20007;-79
2021/03/16 06:51:27;;;;;;;32.03;3.80;;;;;;;;;;6387861;22;20045;-79
2021/03/16 06:53:53;;;;;;;44.17;6.37;;;;;;;;;;6388771;22;20009;-79
2021/03/16 06:56:29;;;;;;;29.60;4.50;;;;;;;;;;6357223;22;20029;-79
2021/03/16 06:58:55;;;;;;;31.27;4.50;;;;;;;;;;6381403;22;20018;-78
2021/03/16 07:01:24;;;;;;;35.87;5.37;;;;;;;;;;6354283;22;20007;-78
2021/03/16 07:03:50;;;;;;;45.60;5.47;;;;;;;;;;6385290;22;19991;-78
2021/03/16 07:06:18;;;;;;;34.50;5.37;;;;;;;;;;6382031;22;20011;-79
2021/03/16 07:08:44;;;;;;;36.87;4.53;;;;;;;;;;6378576;22;20006;-78
2021/03/16 07:11:12;;;;;;;31.03;3.90;;;;;;;;;;6383000;22;20064;-78
2021/03/16 07:13:38;;;;;;;25.17;4.20;;;;;;;;;;6357280;22;20003;-79
2021/03/16 07:16:05;;;;;;;34.10;4.17;;;;;;;;;;6386825;22;19999;-79
2021/03/16 07:18:33;;;;;;;38.47;4.17;;;;;;;;;;6386223;22;20007;-79
2021/03/16 07:21:02;;;;;;;36.37;3.53;;;;;;;;;;6388770;22;20006;-79
2021/03/16 07:23:29;;;;;;;32.47;3.17;;;;;;;;;;6362481;22;19999;-79
2021/03/16 07:25:56;;;;;;;30.07;4.23;;;;;;;;;;6378849;22;20063;-79
2021/03/16 07:28:22;;;;;;;39.63;5.33;;;;;;;;;;6371322;22;20006;-79
2021/03/16 07:30:50;;;;;;;22.80;2.27;;;;;;;;;;6366247;22;20033;-76
2021/03/16 07:33:17;;;;;;;28.47;3.70;;;;;;;;;;6365950;22;20030;-76
2021/03/16 07:35:43;;;;;;;31.93;3.90;;;;;;;;;;6365765;22;20037;-76
2021/03/16 07:38:09;;;;;;;32.30;4.57;;;;;;;;;;6339938;22;20003;-76
2021/03/16 07:40:37;;;;;;;29.03;5.07;;;;;;;;;;6370247;22;20007;-76
2021/03/16 07:43:03;;;;;;;28.40;3.73;;;;;;;;;;6370832;22;20006;-77
2021/03/16 07:45:30;;;;;;;36.33;3.50;;;;;;;;;;6374018;22;20063;-77
2021/03/16 07:47:56;;;;;;;26.90;3.47;;;;;;;;;;6350051;22;20014;-78
2021/03/16 07:50:26;;;;;;;29.60;3.77;;;;;;;;;;6350113;22;20019;-77
2021/03/16 07:52:52;;;;;;;24.63;2.90;;;;;;;;;;6375981;22;20504;-77
2021/03/16 07:55:26;;;;;;;39.33;4.63;;;;;;;;;;6351907;22;20010;-76
2021/03/16 07:57:52;;;;;;;31.60;4.13;;;;;;;;;;6375781;22;20009;-76
2021/03/16 08:00:29;;;;;;;32.03;4.23;;;;;;;;;;6350073;22;20018;-76
2021/03/16 08:02:58;;;;;;;29.40;4.37;;;;;;;;;;6351494;22;19999;-77
2021/03/16 08:05:25;;;;;;;34.53;3.57;;;;;;;;;;6347328;22;20340;-76
2021/03/16 08:07:51;;;;;;;60.63;6.87;;;;;;;;;;6347412;22;20415;-77
2021/03/16 08:10:27;;;;;;;49.90;4.20;;;;;;;;;;6345624;22;20010;-77
2021/03/16 08:13:03;;;;;;;39.73;5.77;;;;;;;;;;6371111;22;20011;-77
2021/03/16 08:15:40;;;;;;;31.20;3.77;;;;;;;;;;6371269;22;20120;-76
2021/03/16 08:18:06;;;;;;;26.07;4.50;;;;;;;;;;6370930;22;20017;-77
2021/03/16 08:20:32;;;;;;;32.07;3.90;;;;;;;;;;6349210;22;19999;-77
2021/03/16 08:23:05;;;;;;;30.87;3.43;;;;;;;;;;6348780;22;20033;-76
2021/03/16 08:25:32;;;;;;;27.93;3.23;;;;;;;;;;6372934;22;20060;-77
2021/03/16 08:27:59;;;;;;;24.67;3.50;;;;;;;;;;6345982;22;20045;-77
2021/03/16 08:30:25;;;;;;;37.27;4.10;;;;;;;;;;6374869;22;20003;-77
2021/03/16 08:32:51;;;;;;;18.00;2.30;;;;;;;;;;6351120;22;20014;-76
2021/03/16 08:35:20;;;;;;;36.93;3.47;;;;;;;;;;6352710;22;20042;-77
2021/03/16 08:37:50;;;;;;;28.57;3.00;;;;;;;;;;6350710;22;20018;-76
2021/03/16 08:40:24;;;;;;;21.50;4.83;;;;;;;;;;6378167;22;20011;-76
2021/03/16 08:42:50;;;;;;;26.07;3.07;;;;;;;;;;6377451;22;20011;-77
2021/03/16 08:45:27;;;;;;;32.10;3.90;;;;;;;;;;6376719;22;20037;-77
2021/03/16 08:47:53;;;;;;;22.00;2.80;;;;;;;;;;6353419;22;20018;-78
2021/03/16 08:50:21;;;;;;;31.07;4.40;;;;;;;;;;6348529;22;20019;-77
2021/03/16 08:52:47;;;;;;;22.47;3.07;;;;;;;;;;6375155;22;20066;-77
2021/03/16 08:55:22;;;;;;;20.47;3.00;;;;;;;;;;6340787;22;20015;-77
2021/03/16 08:57:48;;;;;;;23.67;3.22;;;;;;;;;;6367748;22;20030;-77
2021/03/16 09:00:14;;;;;;;24.70;3.47;;;;;;;;;;6367671;22;20412;-77
2021/03/16 09:02:41;;;;;;;24.17;3.23;;;;;;;;;;6342374;22;20065;-77
2021/03/16 09:05:17;;;;;;;22.03;4.60;;;;;;;;;;6342941;22;20026;-77
2021/03/16 09:07:43;;;;;;;24.27;2.93;;;;;;;;;;6374930;22;20032;-77
2021/03/16 09:10:11;;;;;;;28.30;2.63;;;;;;;;;;6347199;22;20017;-77
2021/03/16 09:12:41;;;;;;;32.00;3.80;;;;;;;;;;6370237;22;20006;-76
2021/03/16 09:15:08;;;;;;;26.33;3.20;;;;;;;;;;6344884;22;20023;-77
2021/03/16 09:17:34;;;;;;;24.93;3.03;;;;;;;;;;6340904;22;20011;-77
2021/03/16 09:20:13;;;;;;;22.87;2.80;;;;;;;;;;6365864;22;20014;-77
2021/03/16 09:22:39;;;;;;;26.50;2.57;;;;;;;;;;6366670;22;20003;-78
2021/03/16 09:25:07;;;;;;;26.23;3.17;;;;;;;;;;6366749;22;20011;-78
2021/03/16 09:27:33;;;;;;;20.50;2.80;;;;;;;;;;6368416;22;20443;-77
2021/03/16 09:29:59;;;;;;;20.40;2.77;;;;;;;;;;6346062;22;20063;-78
2021/03/16 09:32:25;;;;;;;19.13;2.67;;;;;;;;;;6371552;22;20007;-76
2021/03/16 09:34:51;;;;;;;9.00;2.20;;;;;;;;;;6369279;22;20421;-78
2021/03/16 09:37:18;;;;;;;18.27;3.00;;;;;;;;;;6366876;22;20025;-77
2021/03/16 09:40:00;;;;;;;15.07;2.17;;;;;;;;;;6368386;22;20428;-77
2021/03/16 09:42:34;;;;;;;22.00;1.87;;;;;;;;;;6346655;22;20033;-76
2021/03/16 09:45:03;;;;;;;17.20;2.30;;;;;;;;;;6374270;22;20007;-77
2021/03/16 09:47:29;;;;;;;20.80;2.37;;;;;;;;;;6351566;22;20055;-77
2021/03/16 09:50:09;;;;;;;11.43;2.20;;;;;;;;;;6376042;22;20011;-77
2021/03/16 09:52:35;;;;;;;18.53;2.37;;;;;;;;;;6369656;22;20444;-77
2021/03/16 09:55:01;;;;;;;19.77;2.27;;;;;;;;;;6341211;22;20062;-78
2021/03/16 09:57:35;;;;;;;15.57;1.50;;;;;;;;;;6366768;22;20007;-78
2021/03/16 10:00:02;;;;;;;7.20;1.02;;;;;;;;;;6368215;22;20014;-79
2021/03/16 10:02:31;;;;;;;18.13;1.70;;;;;;;;;;6366669;22;20040;-78
2021/03/16 10:05:03;;;;;;;16.30;3.00;;;;;;;;;;6366914;22;20060;-78
2021/03/16 10:07:30;;;;;;;12.47;1.73;;;;;;;;;;6342300;22;20019;-79
2021/03/16 10:10:11;;;;;;;17.73;2.70;;;;;;;;;;6342404;22;19995;-78
2021/03/16 10:12:37;;;;;;;12.00;1.67;;;;;;;;;;6341894;22;20021;-78
2021/03/16 10:15:04;;;;;;;9.50;2.37;;;;;;;;;;6367712;22;20018;-78
2021/03/16 10:17:31;;;;;;;14.73;1.60;;;;;;;;;;6341860;22;20011;-79
2021/03/16 10:20:01;;;;;;;11.87;2.53;;;;;;;;;;6341931;22;20089;-78
2021/03/16 10:22:28;;;;;;;11.03;1.60;;;;;;;;;;6368723;22;20006;-78
2021/03/16 10:24:55;;;;;;;8.30;1.27;;;;;;;;;;6343510;22;20010;-77
2021/03/16 10:27:39;;;;;;;18.70;1.83;;;;;;;;;;6345016;22;20014;-77
2021/03/16 10:30:10;;;;;;;9.75;1.27;;;;;;;;;;6375353;22;20007;-75
2021/03/16 10:32:38;;;;;;;9.47;1.37;;;;;;;;;;6349261;22;20550;-77
2021/03/16 10:35:04;;;;;;;8.63;1.07;;;;;;;;;;6372079;22;20011;-78
2021/03/16 10:37:30;;;;;;;6.90;1.07;;;;;;;;;;6366320;22;20042;-78
2021/03/16 10:39:59;;;;;;;7.67;1.10;;;;;;;;;;6340470;22;19999;-78
2021/03/16 10:42:25;;;;;;;10.23;1.43;;;;;;;;;;6366428;22;20015;-78
2021/03/16 10:44:51;;;;;;;4.73;0.90;;;;;;;;;;6340721;22;20390;-78
2021/03/16 10:47:17;;;;;;;6.43;0.90;;;;;;;;;;6340962;22;20006;-78
2021/03/16 10:49:43;;;;;;;9.53;1.23;;;;;;;;;;6341354;22;20029;-78
2021/03/16 10:52:09;;;;;;;4.07;1.00;;;;;;;;;;6367368;22;20014;-77
2021/03/16 10:54:37;;;;;;;4.53;0.87;;;;;;;;;;6368508;22;20090;-77
2021/03/16 10:57:03;;;;;;;4.87;0.97;;;;;;;;;;6343632;22;20018;-77
2021/03/16 10:59:29;;;;;;;6.00;0.87;;;;;;;;;;6372268;22;20002;-77
2021/03/16 11:01:55;;;;;;;7.63;1.00;;;;;;;;;;6369386;22;20090;-78
2021/03/16 11:04:22;;;;;;;6.70;1.63;;;;;;;;;;6366894;22;20057;-76
2021/03/16 11:06:48;;;;;;;6.70;0.90;;;;;;;;;;6341390;22;20069;-77
2021/03/16 11:09:14;;;;;;;6.13;0.77;;;;;;;;;;6341656;22;20010;-79
2021/03/16 11:11:40;;;;;;;7.10;1.13;;;;;;;;;;6346103;22;20463;-80
2021/03/16 11:14:07;;;;;;;8.53;2.73;;;;;;;;;;6340667;22;20081;-77
2021/03/16 11:16:33;;;;;;;10.87;2.33;;;;;;;;;;6340743;22;20011;-79
2021/03/16 11:18:59;;;;;;;5.17;1.00;;;;;;;;;;6341159;22;20080;-77
2021/03/16 11:21:25;;;;;;;10.57;1.97;;;;;;;;;;6341531;22;20395;-76
2021/03/16 11:23:51;;;;;;;6.03;1.00;;;;;;;;;;6366084;22;20041;-76
2021/03/16 11:26:17;;;;;;;4.23;0.67;;;;;;;;;;6340989;22;20014;-76
2021/03/16 11:28:43;;;;;;;3.93;0.67;;;;;;;;;;6349948;22;20094;-77
2021/03/16 11:31:10;;;;;;;5.37;0.70;;;;;;;;;;6341578;22;20011;-77
2021/03/16 11:33:36;;;;;;;10.33;1.10;;;;;;;;;;6368813;22;20464;-77
2021/03/16 11:36:02;;;;;;;3.87;0.60;;;;;;;;;;6370567;22;20021;-76
2021/03/16 11:38:28;;;;;;;4.10;0.70;;;;;;;;;;6339757;22;20010;-76
2021/03/16 11:40:54;;;;;;;5.33;0.67;;;;;;;;;;6365018;22;20007;-77
2021/03/16 11:43:20;;;;;;;9.80;1.07;;;;;;;;;;6364882;22;20033;-76
2021/03/16 11:45:46;;;;;;;5.57;1.10;;;;;;;;;;6365531;22;20010;-77
2021/03/16 11:48:12;;;;;;;4.43;1.30;;;;;;;;;;6366279;22;20003;-75
2021/03/16 11:50:38;;;;;;;2.63;0.57;;;;;;;;;;6341345;22;20117;-76
2021/03/16 11:53:06;;;;;;;2.53;0.60;;;;;;;;;;6340300;22;20018;-76
2021/03/16 11:55:32;;;;;;;4.33;1.00;;;;;;;;;;6367810;22;20010;-76
2021/03/16 11:57:58;;;;;;;1.50;0.73;;;;;;;;;;6367832;22;20007;-77
2021/03/16 12:00:24;;;;;;;3.07;0.50;;;;;;;;;;6342482;22;20045;-76
2021/03/16 12:02:50;;;;;;;5.07;0.70;;;;;;;;;;6346288;22;20055;-77
2021/03/16 12:05:16;;;;;;;3.37;0.80;;;;;;;;;;6341521;22;20011;-77
2021/03/16 12:07:42;;;;;;;3.93;0.53;;;;;;;;;;6342867;22;19999;-76
2021/03/16 12:10:08;;;;;;;1.83;0.53;;;;;;;;;;6370766;22;20003;-77
2021/03/16 12:12:34;;;;;;;3.50;0.60;;;;;;;;;;6371863;22;20069;-76
2021/03/16 12:15:01;;;;;;;6.10;0.77;;;;;;;;;;6342253;22;20094;-76
2021/03/16 12:17:27;;;;;;;3.57;0.53;;;;;;;;;;6342297;22;20007;-77
2021/03/16 12:19:53;;;;;;;3.90;0.60;;;;;;;;;;6372661;22;20006;-76
2021/03/16 12:22:19;;;;;;;6.57;0.73;;;;;;;;;;6344778;22;20107;-78
2021/03/16 12:24:46;;;;;;;4.50;0.80;;;;;;;;;;6366441;22;20011;-76
2021/03/16 12:27:13;;;;;;;6.23;0.63;;;;;;;;;;6365288;22;20090;-77
2021/03/16 12:29:39;;;;;;;3.00;0.57;;;;;;;;;;6365640;22;20003;-76
2021/03/16 12:32:05;;;;;;;8.07;0.80;;;;;;;;;;6365101;22;20443;-76
2021/03/16 12:34:31;;;;;;;5.43;1.10;;;;;;;;;;6339641;22;20484;-76
2021/03/16 12:36:57;;;;;;;4.97;1.00;;;;;;;;;;6339597;22;20064;-76
2021/03/16 12:39:23;;;;;;;6.23;0.60;;;;;;;;;;6340494;22;20060;-77
2021/03/16 12:41:50;;;;;;;4.20;0.57;;;;;;;;;;6340813;22;20037;-77
2021/03/16 12:44:16;;;;;;;3.70;0.67;;;;;;;;;;6366808;22;20007;-76
2021/03/16 12:46:42;;;;;;;4.47;0.80;;;;;;;;;;6368994;22;20034;-77
2021/03/16 12:49:08;;;;;;;6.57;0.97;;;;;;;;;;6369487;22;20006;-76
2021/03/16 12:51:34;;;;;;;3.07;0.70;;;;;;;;;;6344010;22;20019;-76
2021/03/16 12:54:02;;;;;;;3.03;0.70;;;;;;;;;;6344012;22;20082;-77
2021/03/16 12:56:28;;;;;;;5.43;1.23;;;;;;;;;;6344185;22;20064;-77
2021/03/16 12:58:54;;;;;;;9.20;1.00;;;;;;;;;;6344824;22;20007;-77
2021/03/16 13:01:20;;;;;;;4.07;0.60;;;;;;;;;;6347433;22;19995;-77
2021/03/16 13:03:46;;;;;;;4.80;0.70;;;;;;;;;;6374599;22;20068;-77
2021/03/16 13:06:12;;;;;;;5.17;0.70;;;;;;;;;;6377643;22;20081;-77
2021/03/16 13:08:38;;;;;;;3.67;0.83;;;;;;;;;;6377970;22;20007;-77
2021/03/16 13:11:04;;;;;;;1.80;0.40;;;;;;;;;;6351105;22;20056;-77
2021/03/16 13:13:30;;;;;;;2.97;0.47;;;;;;;;;;6351332;22;20014;-77
2021/03/16 13:15:56;;;;;;;2.03;0.50;;;;;;;;;;6351313;22;20010;-77
2021/03/16 13:18:22;;;;;;;3.30;0.50;;;;;;;;;;6348813;22;20417;-77
2021/03/16 13:20:48;;;;;;;1.80;0.43;;;;;;;;;;6351653;22;20056;-77
2021/03/16 13:23:14;;;;;;;1.93;0.50;;;;;;;;;;6373073;22;20007;-77
2021/03/16 13:25:41;;;;;;;2.83;0.60;;;;;;;;;;6378084;22;20011;-76
2021/03/16 13:28:06;;;;;;;3.57;0.60;;;;;;;;;;6342943;22;20011;-77
2021/03/16 13:30:33;;;;;;;4.60;0.45;;;;;;;;;;6343147;22;20064;-76
2021/03/16 13:32:59;;;;;;;1.10;0.40;;;;;;;;;;6368888;22;20015;-77
2021/03/16 13:35:25;;;;;;;2.33;0.50;;;;;;;;;;6342832;22;20080;-77
2021/03/16 13:37:52;;;;;;;2.77;0.63;;;;;;;;;;6367679;22;20034;-76
2021/03/16 13:40:21;;;;;;;2.33;0.77;;;;;;;;;;6364562;22;20083;-76
2021/03/16 13:42:47;;;;;;;3.60;0.53;;;;;;;;;;6364649;22;20432;-76
2021/03/16 13:45:14;;;;;;;1.23;0.40;;;;;;;;;;6338391;22;20026;-76
2021/03/16 13:47:40;;;;;;;3.90;0.60;;;;;;;;;;6366092;22;20014;-76
2021/03/16 13:50:07;;;;;;;3.07;0.60;;;;;;;;;;6341520;22;19999;-78
2021/03/16 13:52:33;;;;;;;4.27;0.87;;;;;;;;;;6340704;22;20468;-76
2021/03/16 13:54:59;;;;;;;6.53;0.80;;;;;;;;;;6340519;22;20045;-76
2021/03/16 13:57:25;;;;;;;2.67;1.07;;;;;;;;;;6343164;22;20065;-76
2021/03/16 13:59:51;;;;;;;3.73;0.67;;;;;;;;;;6342023;22;20007;-76
2021/03/16 14:02:17;;;;;;;2.83;0.60;;;;;;;;;;6346910;22;20003;-77
2021/03/16 14:04:43;;;;;;;3.67;0.70;;;;;;;;;;6339446;22;20382;-77
2021/03/16 14:07:10;;;;;;;3.80;0.60;;;;;;;;;;6338225;22;20011;-76
2021/03/16 14:09:37;;;;;;;3.70;0.63;;;;;;;;;;6364498;22;19998;-76
2021/03/16 14:12:04;;;;;;;8.43;0.90;;;;;;;;;;6338817;22;20121;-77
2021/03/16 14:14:30;;;;;;;2.47;0.53;;;;;;;;;;6338446;22;20014;-77
2021/03/16 14:16:56;;;;;;;3.27;0.57;;;;;;;;;;6364516;22;20018;-76
2021/03/16 14:19:22;;;;;;;0.60;0.40;;;;;;;;;;6339053;22;20003;-76
2021/03/16 14:21:49;;;;;;;1.90;0.47;;;;;;;;;;6338969;22;20340;-76
2021/03/16 14:24:15;;;;;;;2.47;0.70;;;;;;;;;;6365735;22;20034;-76
2021/03/16 14:26:41;;;;;;;6.23;0.60;;;;;;;;;;6340345;22;20097;-77
2021/03/16 14:29:07;;;;;;;1.57;0.50;;;;;;;;;;6343623;22;20006;-76
2021/03/16 14:31:33;;;;;;;2.30;1.10;;;;;;;;;;6372264;22;20075;-77
2021/03/16 14:33:59;;;;;;;0.93;0.43;;;;;;;;;;6342785;22;20019;-77